createdAt,value
2022-11-28T00:01:41.397Z,2.55
2022-11-28T00:04:11.456Z,2.64
2022-11-28T00:06:44.266Z,2.58
2022-11-28T00:09:14.266Z,2.65
2022-11-28T00:11:45.243Z,2.54
2022-11-28T00:14:14.620Z,2.64
2022-11-28T00:16:43.924Z,2.68
2022-11-28T00:19:13.840Z,2.59
2022-11-28T00:21:43.239Z,2.66
2022-11-28T00:24:11.914Z,2.46
2022-11-28T00:26:42.614Z,2.49
2022-11-28T00:29:11.793Z,2.53
2022-11-28T00:31:45.859Z,2.46
2022-11-28T00:34:16.325Z,2.45
2022-11-28T00:36:47.234Z,2.40
2022-11-28T00:39:17.473Z,2.39
2022-11-28T00:41:46.842Z,2.35
2022-11-28T00:44:15.748Z,2.40
2022-11-28T00:46:44.555Z,2.29
2022-11-28T00:49:13.564Z,2.30
2022-11-28T00:51:42.108Z,2.36
2022-11-28T00:54:11.229Z,2.37
2022-11-28T00:56:41.255Z,2.32
2022-11-28T00:59:10.018Z,2.35
2022-11-28T01:01:41.749Z,2.35
2022-11-28T01:04:13.018Z,2.26
2022-11-28T01:06:44.591Z,2.25
2022-11-28T01:09:16.040Z,2.35
2022-11-28T01:11:45.786Z,2.35
2022-11-28T01:14:14.932Z,2.25
2022-11-28T01:16:43.575Z,2.11
2022-11-28T01:19:12.229Z,2.21
2022-11-28T01:21:40.828Z,2.18
2022-11-28T01:24:09.492Z,2.23
2022-11-28T01:26:40.561Z,2.21
2022-11-28T01:29:09.946Z,2.27
2022-11-28T01:31:39.220Z,2.25
2022-11-28T01:34:07.913Z,2.24
2022-11-28T01:36:38.195Z,2.28
2022-11-28T01:39:06.837Z,2.37
2022-11-28T01:41:35.992Z,2.28
2022-11-28T01:44:16.433Z,2.14
2022-11-28T01:46:45.216Z,2.23
2022-11-28T01:49:16.854Z,2.28
2022-11-28T01:51:48.414Z,2.25
2022-11-28T01:54:19.943Z,2.33
2022-11-28T01:56:54.527Z,2.37
2022-11-28T01:59:26.907Z,2.33
2022-11-28T02:01:55.669Z,2.26
2022-11-28T02:04:26.446Z,2.33
2022-11-28T02:06:56.397Z,2.29
2022-11-28T02:09:25.054Z,2.34
2022-11-28T02:11:56.716Z,2.35
2022-11-28T02:15:01.979Z,2.30
2022-11-28T02:17:36.270Z,2.16
2022-11-28T02:20:35.146Z,2.14
2022-11-28T02:23:18.321Z,2.11
2022-11-28T02:26:06.872Z,2.06
2022-11-28T02:28:56.609Z,2.14
2022-11-28T02:31:32.815Z,2.08
2022-11-28T02:34:10.354Z,2.19
2022-11-28T02:36:51.051Z,2.22
2022-11-28T02:39:34.420Z,2.09
2022-11-28T02:42:11.911Z,2.10
2022-11-28T02:44:44.018Z,2.09
2022-11-28T02:47:30.183Z,2.22
2022-11-28T02:50:01.777Z,2.24
2022-11-28T02:52:36.161Z,2.15
2022-11-28T02:55:07.011Z,2.23
2022-11-28T02:57:40.762Z,2.26
2022-11-28T03:00:35.993Z,2.29
2022-11-28T03:03:38.161Z,2.29
2022-11-28T03:06:18.844Z,2.24
2022-11-28T03:09:05.268Z,2.21
2022-11-28T03:11:37.151Z,2.15
2022-11-28T03:14:31.603Z,2.14
2022-11-28T03:17:22.781Z,2.23
2022-11-28T03:19:54.443Z,2.29
2022-11-28T03:22:31.697Z,2.27
2022-11-28T03:25:03.578Z,2.08
2022-11-28T03:27:35.178Z,2.06
2022-11-28T03:30:09.928Z,2.11
2022-11-28T03:32:40.703Z,1.98
2022-11-28T03:35:14.723Z,2.03
2022-11-28T03:37:52.080Z,2.05
2022-11-28T03:40:23.646Z,1.94
2022-11-28T03:43:12.532Z,2.05
2022-11-28T03:45:44.496Z,2.11
2022-11-28T03:48:18.855Z,2.00
2022-11-28T03:50:50.522Z,1.88
2022-11-28T03:53:22.327Z,2.01
2022-11-28T03:56:02.947Z,2.00
2022-11-28T03:58:40.383Z,1.95
2022-11-28T04:01:42.239Z,1.98
2022-11-28T04:04:28.886Z,1.97
2022-11-28T04:07:03.446Z,2.00
2022-11-28T04:09:46.403Z,1.97
2022-11-28T04:12:36.873Z,1.98
2022-11-28T04:15:14.767Z,2.00
2022-11-28T04:17:51.926Z,1.92
2022-11-28T04:20:31.428Z,2.03
2022-11-28T04:23:03.010Z,2.14
2022-11-28T04:25:37.295Z,1.94
2022-11-28T04:28:08.873Z,2.05
2022-11-28T04:30:40.505Z,2.05
2022-11-28T04:33:12.797Z,2.04
2022-11-28T04:35:47.240Z,2.10
2022-11-28T04:38:16.554Z,2.13
2022-11-28T04:41:07.999Z,2.15
2022-11-28T04:43:39.183Z,2.18
2022-11-28T04:46:10.877Z,2.15
2022-11-28T04:48:39.829Z,2.19
2022-11-28T04:51:24.891Z,2.22
2022-11-28T04:54:08.611Z,2.13
2022-11-28T04:56:48.961Z,2.01
2022-11-28T04:59:18.912Z,2.15
2022-11-28T05:01:50.250Z,2.12
2022-11-28T05:04:19.093Z,2.06
2022-11-28T05:06:48.091Z,2.22
2022-11-28T05:09:16.751Z,2.24
2022-11-28T05:11:46.246Z,2.17
2022-11-28T05:14:16.450Z,2.14
2022-11-28T05:16:45.107Z,2.16
2022-11-28T05:19:13.758Z,2.27
2022-11-28T05:21:42.405Z,2.19
2022-11-28T05:24:12.487Z,2.27
2022-11-28T05:26:41.229Z,2.25
2022-11-28T05:29:09.877Z,2.30
2022-11-28T05:31:39.444Z,2.36
2022-11-28T05:34:08.195Z,2.31
2022-11-28T05:36:39.856Z,2.32
2022-11-28T05:39:08.518Z,2.34
2022-11-28T05:41:37.391Z,2.45
2022-11-28T05:44:06.101Z,2.46
2022-11-28T05:46:34.694Z,2.54
2022-11-28T05:49:03.258Z,2.44
2022-11-28T05:51:31.869Z,2.50
2022-11-28T05:54:00.497Z,2.53
2022-11-28T05:56:29.139Z,2.53
2022-11-28T05:59:01.447Z,2.56
2022-11-28T06:01:31.220Z,2.48
2022-11-28T06:04:02.194Z,2.45
2022-11-28T06:06:33.098Z,2.65
2022-11-28T06:09:02.618Z,2.60
2022-11-28T06:11:33.225Z,2.66
2022-11-28T06:14:03.035Z,2.43
2022-11-28T06:16:33.508Z,2.43
2022-11-28T06:19:05.149Z,2.53
2022-11-28T06:21:34.401Z,2.61
2022-11-28T06:24:02.973Z,2.70
2022-11-28T06:26:31.743Z,2.65
2022-11-28T06:29:00.215Z,2.67
2022-11-28T06:31:30.623Z,2.66
2022-11-28T06:33:59.918Z,2.73
2022-11-28T06:36:30.797Z,2.83
2022-11-28T06:38:59.403Z,2.70
2022-11-28T06:41:27.872Z,2.76
2022-11-28T06:43:57.373Z,2.84
2022-11-28T06:46:26.062Z,2.92
2022-11-28T06:48:54.760Z,2.96
2022-11-28T06:51:28.216Z,3.06
2022-11-28T06:53:56.873Z,3.04
2022-11-28T06:56:26.842Z,2.99
2022-11-28T06:59:00.153Z,2.89
2022-11-28T07:01:31.418Z,2.67
2022-11-28T07:04:03.552Z,2.74
2022-11-28T07:06:35.673Z,2.74
2022-11-28T07:09:04.547Z,2.79
2022-11-28T07:11:34.201Z,2.77
2022-11-28T07:14:09.351Z,2.81
2022-11-28T07:16:43.736Z,2.85
2022-11-28T07:19:13.744Z,2.89
2022-11-28T07:21:42.502Z,3.02
2022-11-28T07:47:00.651Z,3.09
2022-11-28T08:43:53.818Z,3.82
2022-11-28T08:47:00.049Z,3.95
2022-11-28T08:52:42.814Z,3.98
2022-11-28T08:55:52.023Z,3.79
2022-11-28T09:03:33.675Z,3.62
2022-11-28T09:09:16.609Z,3.77
2022-11-28T09:11:57.617Z,3.78
2022-11-28T09:30:44.892Z,4.56
2022-11-28T09:32:58.951Z,4.85
2022-11-28T09:35:36.785Z,4.85
2022-11-28T09:38:15.099Z,5.03
2022-11-28T09:47:58.242Z,5.51
2022-11-28T09:51:04.707Z,5.87
2022-11-28T09:53:59.626Z,5.83
2022-11-28T10:02:54.236Z,5.53
2022-11-28T10:06:12.966Z,5.62
2022-11-28T10:08:46.980Z,5.81
2022-11-28T10:28:51.415Z,5.68
2022-11-28T10:31:38.285Z,5.45
2022-11-28T10:34:09.811Z,5.44
2022-11-28T10:36:44.177Z,5.48
2022-11-28T10:39:15.642Z,5.24
2022-11-28T10:42:14.274Z,5.25
2022-11-28T10:44:54.833Z,5.50
2022-11-28T10:47:55.337Z,5.56
2022-11-28T10:50:32.530Z,5.26
2022-11-28T10:53:04.230Z,5.67
2022-11-28T10:55:52.371Z,5.88
2022-11-28T10:58:41.610Z,5.89
2022-11-28T11:01:11.422Z,6.19
2022-11-28T11:03:41.680Z,6.35
2022-11-28T11:06:10.731Z,5.94
2022-11-28T11:08:41.562Z,5.72
2022-11-28T11:11:21.952Z,5.53
2022-11-28T11:14:05.218Z,5.71
2022-11-28T11:16:55.879Z,5.80
2022-11-28T11:19:28.529Z,5.94
2022-11-28T11:22:23.239Z,5.68
2022-11-28T11:25:16.418Z,6.22
2022-11-28T11:28:01.491Z,6.12
2022-11-28T11:30:39.159Z,5.95
2022-11-28T11:33:10.847Z,6.12
2022-11-28T11:51:44.757Z,6.24
2022-11-28T11:54:16.320Z,6.18
2022-11-28T11:56:47.802Z,6.14
2022-11-28T11:59:31.519Z,6.14
2022-11-28T12:02:06.175Z,6.06
2022-11-28T12:04:47.080Z,5.86
2022-11-28T12:07:29.434Z,5.60
2022-11-28T12:10:04.335Z,5.49
2022-11-28T12:12:37.125Z,5.69
2022-11-28T12:21:40.150Z,6.44
2022-11-28T13:25:01.012Z,5.11
2022-11-28T13:27:36.416Z,5.06
2022-11-28T13:30:31.237Z,5.03
2022-11-28T14:18:31.520Z,4.24
2022-11-28T14:23:16.478Z,4.11
2022-11-28T14:23:57.740Z,4.12
2022-11-28T14:26:36.999Z,4.15
2022-11-28T14:29:29.939Z,4.01
2022-11-28T14:34:47.458Z,3.94
2022-11-28T14:37:23.825Z,3.98
2022-11-28T14:39:53.918Z,3.98
2022-11-28T14:42:58.991Z,3.99
2022-11-28T14:45:06.715Z,3.93
2022-11-28T14:47:37.953Z,3.83
2022-11-28T14:50:14.133Z,3.80
2022-11-28T14:52:44.542Z,3.83
2022-11-28T14:55:16.424Z,3.84
2022-11-28T15:05:46.599Z,3.57
2022-11-28T15:08:51.580Z,3.56
2022-11-28T15:11:38.613Z,3.60
2022-11-28T15:23:48.096Z,3.73
2022-11-28T15:26:30.384Z,3.81
2022-11-28T15:29:14.076Z,3.90
2022-11-28T15:31:44.435Z,3.77
2022-11-28T15:34:14.610Z,3.79
2022-11-28T15:36:44.963Z,3.75
2022-11-28T15:39:30.295Z,3.81
2022-11-28T15:42:01.223Z,3.75
2022-11-28T15:44:34.023Z,3.77
2022-11-28T15:47:03.127Z,3.81
2022-11-28T15:49:34.398Z,3.75
2022-11-28T15:52:10.577Z,3.81
2022-11-28T16:11:49.344Z,3.63
2022-11-28T16:14:21.272Z,3.59
2022-11-28T18:11:10.795Z,4.00
2022-11-28T18:13:39.478Z,3.97
2022-11-28T18:16:17.148Z,3.98
2022-11-28T18:18:46.638Z,3.93
2022-11-28T18:21:22.149Z,3.94
2022-11-28T18:23:50.650Z,3.91
2022-11-28T18:26:23.090Z,3.96
2022-11-28T18:28:52.466Z,3.95
2022-11-28T18:31:25.321Z,3.94
2022-11-28T18:34:00.203Z,3.90
2022-11-28T18:36:28.368Z,3.85
2022-11-28T18:38:59.398Z,3.85
2022-11-28T18:41:29.260Z,3.80
2022-11-28T18:43:59.878Z,3.78
2022-11-28T18:46:30.296Z,3.81
2022-11-28T18:49:10.426Z,3.90
2022-11-28T18:51:49.556Z,3.89
2022-11-28T18:54:26.654Z,3.90
2022-11-28T18:56:54.373Z,3.90
2022-11-28T18:59:23.086Z,3.87
2022-11-28T19:01:51.948Z,3.97
2022-11-28T20:09:18.242Z,3.27
2022-11-28T20:11:46.876Z,3.13
2022-11-28T20:14:18.643Z,3.00
2022-11-28T20:16:47.935Z,3.19
2022-11-28T20:19:19.549Z,3.21
2022-11-28T20:21:50.944Z,3.21
2022-11-28T20:24:19.665Z,3.33
2022-11-28T20:26:53.621Z,3.30
2022-11-28T20:29:26.703Z,3.30
2022-11-28T22:18:33.593Z,3.52
2022-11-28T22:27:39.627Z,3.42
2022-11-28T22:30:56.054Z,3.44
2022-11-28T22:54:10.927Z,3.37
2022-11-28T22:56:40.795Z,3.44
2022-11-28T22:59:12.453Z,3.48
2022-11-28T23:01:41.791Z,3.44
2022-11-28T23:04:11.334Z,3.54
2022-11-28T23:06:40.053Z,3.61
2022-11-28T23:09:10.596Z,3.38
2022-11-28T23:11:40.385Z,3.44
2022-11-28T23:14:10.605Z,3.34
2022-11-28T23:16:41.225Z,3.48
2022-11-28T23:19:13.022Z,3.58
2022-11-28T23:21:43.683Z,3.66
2022-11-28T23:24:18.035Z,3.54
2022-11-28T23:26:46.995Z,3.56
2022-11-28T23:29:16.641Z,3.55
2022-11-28T23:31:47.175Z,3.54
2022-11-28T23:34:16.348Z,3.48
2022-11-28T23:36:47.367Z,3.48
2022-11-28T23:39:21.521Z,3.43
2022-11-28T23:41:50.749Z,3.48
2022-11-28T23:44:20.789Z,3.39
2022-11-28T23:46:49.378Z,3.39
2022-11-28T23:49:18.600Z,3.35
2022-11-28T23:51:47.630Z,3.52
2022-11-28T23:54:17.433Z,3.45
2022-11-28T23:56:46.082Z,3.49
2022-11-28T23:59:14.755Z,3.49
